Terminal Aerodrome Forecast
Issued by NWS

Home | Current Version | Previous Version | Text Only | Print | Product List | Glossary On
Versions: 1 2 3 4 5 6 7 8 9 10 11 12 13 14 15 16 17 18
000
FTUS41 KPBZ 171128
TAFHLG
TAF
KHLG 171128Z 1712/1812 20005KT P6SM BKN250
     FM180700 22005KT 5SM BR BKN030
     FM181000 22005KT 5SM -DZ BR BKN015=

USA.gov is the U.S. government's official web portal to all federal, state and local government web resources and services.